sensor_id;sensor_type;location;lat;lon;timestamp;temperature;humidity
28632;DHT22;15818;45.534;5.292;2022-08-19T00:00:03;17.40;99.90
28632;DHT22;15818;45.534;5.292;2022-08-19T00:02:29;17.50;99.90
28632;DHT22;15818;45.534;5.292;2022-08-19T00:04:55;17.40;99.90
28632;DHT22;15818;45.534;5.292;2022-08-19T00:07:21;17.50;99.90
28632;DHT22;15818;45.534;5.292;2022-08-19T00:09:47;17.50;99.90
28632;DHT22;15818;45.534;5.292;2022-08-19T00:12:13;17.50;99.90
28632;DHT22;15818;45.534;5.292;2022-08-19T00:14:39;17.50;99.90
28632;DHT22;15818;45.534;5.292;2022-08-19T00:17:07;17.50;99.90
28632;DHT22;15818;45.534;5.292;2022-08-19T00:19:33;17.50;99.90
28632;DHT22;15818;45.534;5.292;2022-08-19T00:21:59;17.60;99.90
28632;DHT22;15818;45.534;5.292;2022-08-19T00:24:26;17.50;99.90
28632;DHT22;15818;45.534;5.292;2022-08-19T00:26:52;17.50;99.90
28632;DHT22;15818;45.534;5.292;2022-08-19T00:29:20;17.50;99.90
28632;DHT22;15818;45.534;5.292;2022-08-19T00:31:46;17.40;99.90
28632;DHT22;15818;45.534;5.292;2022-08-19T00:34:13;17.40;99.90
28632;DHT22;15818;45.534;5.292;2022-08-19T00:36:42;17.40;99.90
28632;DHT22;15818;45.534;5.292;2022-08-19T00:39:08;17.30;99.90
28632;DHT22;15818;45.534;5.292;2022-08-19T00:41:34;17.30;99.90
28632;DHT22;15818;45.534;5.292;2022-08-19T00:46:36;17.20;99.90
28632;DHT22;15818;45.534;5.292;2022-08-19T00:49:40;17.20;99.90
28632;DHT22;15818;45.534;5.292;2022-08-19T00:52:09;17.20;99.90
28632;DHT22;15818;45.534;5.292;2022-08-19T00:54:36;17.20;99.90
28632;DHT22;15818;45.534;5.292;2022-08-19T00:57:06;17.10;99.90
28632;DHT22;15818;45.534;5.292;2022-08-19T00:59:35;17.10;99.90
28632;DHT22;15818;45.534;5.292;2022-08-19T01:02:02;17.20;99.90
28632;DHT22;15818;45.534;5.292;2022-08-19T01:04:28;17.20;99.90
28632;DHT22;15818;45.534;5.292;2022-08-19T01:06:54;17.30;99.90
28632;DHT22;15818;45.534;5.292;2022-08-19T01:09:20;17.30;99.90
28632;DHT22;15818;45.534;5.292;2022-08-19T01:11:46;17.30;99.90
28632;DHT22;15818;45.534;5.292;2022-08-19T01:14:12;17.20;99.90
28632;DHT22;15818;45.534;5.292;2022-08-19T01:16:40;17.20;99.90
28632;DHT22;15818;45.534;5.292;2022-08-19T01:19:18;17.10;99.90
28632;DHT22;15818;45.534;5.292;2022-08-19T01:21:55;17.20;99.90
28632;DHT22;15818;45.534;5.292;2022-08-19T01:24:23;17.20;99.90
28632;DHT22;15818;45.534;5.292;2022-08-19T01:26:49;17.20;99.90
28632;DHT22;15818;45.534;5.292;2022-08-19T01:29:15;17.20;99.90
28632;DHT22;15818;45.534;5.292;2022-08-19T01:31:40;17.20;99.90
28632;DHT22;15818;45.534;5.292;2022-08-19T01:34:07;17.10;99.90
28632;DHT22;15818;45.534;5.292;2022-08-19T01:36:44;17.10;99.90
28632;DHT22;15818;45.534;5.292;2022-08-19T01:39:16;17.10;99.90
28632;DHT22;15818;45.534;5.292;2022-08-19T01:41:42;17.10;99.90
28632;DHT22;15818;45.534;5.292;2022-08-19T01:44:09;17.00;99.90
28632;DHT22;15818;45.534;5.292;2022-08-19T01:46:35;17.10;99.90
28632;DHT22;15818;45.534;5.292;2022-08-19T01:49:03;16.90;99.90
28632;DHT22;15818;45.534;5.292;2022-08-19T01:51:29;16.90;99.90
28632;DHT22;15818;45.534;5.292;2022-08-19T01:53:56;16.90;99.90
28632;DHT22;15818;45.534;5.292;2022-08-19T01:56:22;16.90;99.90
28632;DHT22;15818;45.534;5.292;2022-08-19T01:59:03;16.90;99.90
28632;DHT22;15818;45.534;5.292;2022-08-19T02:01:30;17.00;99.90
28632;DHT22;15818;45.534;5.292;2022-08-19T02:03:58;17.00;99.90
28632;DHT22;15818;45.534;5.292;2022-08-19T02:06:24;17.00;99.90
28632;DHT22;15818;45.534;5.292;2022-08-19T02:08:49;17.00;99.90
28632;DHT22;15818;45.534;5.292;2022-08-19T02:11:23;17.00;99.90
28632;DHT22;15818;45.534;5.292;2022-08-19T02:13:49;17.00;99.90
28632;DHT22;15818;45.534;5.292;2022-08-19T02:16:17;17.00;99.90
28632;DHT22;15818;45.534;5.292;2022-08-19T02:18:43;17.00;99.90
28632;DHT22;15818;45.534;5.292;2022-08-19T02:21:09;17.00;99.90
28632;DHT22;15818;45.534;5.292;2022-08-19T02:23:36;17.10;99.90
28632;DHT22;15818;45.534;5.292;2022-08-19T02:26:02;17.00;99.90
28632;DHT22;15818;45.534;5.292;2022-08-19T02:28:27;17.00;99.90
28632;DHT22;15818;45.534;5.292;2022-08-19T02:30:53;17.10;99.90
28632;DHT22;15818;45.534;5.292;2022-08-19T02:33:18;17.10;99.90
28632;DHT22;15818;45.534;5.292;2022-08-19T02:35:45;17.20;99.90
28632;DHT22;15818;45.534;5.292;2022-08-19T02:38:12;17.20;99.90
28632;DHT22;15818;45.534;5.292;2022-08-19T02:41:00;17.10;99.90
28632;DHT22;15818;45.534;5.292;2022-08-19T02:43:27;17.10;99.90
28632;DHT22;15818;45.534;5.292;2022-08-19T02:45:53;17.20;99.90
28632;DHT22;15818;45.534;5.292;2022-08-19T02:48:22;17.10;99.90
28632;DHT22;15818;45.534;5.292;2022-08-19T02:50:49;17.20;99.90
28632;DHT22;15818;45.534;5.292;2022-08-19T02:53:22;17.20;99.90
28632;DHT22;15818;45.534;5.292;2022-08-19T02:55:49;17.30;99.90
28632;DHT22;15818;45.534;5.292;2022-08-19T02:58:15;17.20;99.90
28632;DHT22;15818;45.534;5.292;2022-08-19T03:00:46;17.30;99.90
28632;DHT22;15818;45.534;5.292;2022-08-19T03:03:13;17.30;99.90
28632;DHT22;15818;45.534;5.292;2022-08-19T03:05:39;17.30;99.90
28632;DHT22;15818;45.534;5.292;2022-08-19T03:08:05;17.30;99.90
28632;DHT22;15818;45.534;5.292;2022-08-19T03:10:32;17.30;99.90
28632;DHT22;15818;45.534;5.292;2022-08-19T03:12:58;17.30;99.90
28632;DHT22;15818;45.534;5.292;2022-08-19T03:15:24;17.20;99.90
28632;DHT22;15818;45.534;5.292;2022-08-19T03:17:49;17.20;99.90
28632;DHT22;15818;45.534;5.292;2022-08-19T03:20:15;17.20;99.90
28632;DHT22;15818;45.534;5.292;2022-08-19T03:22:41;17.20;99.90
28632;DHT22;15818;45.534;5.292;2022-08-19T03:25:07;17.30;99.90
28632;DHT22;15818;45.534;5.292;2022-08-19T03:27:32;17.30;99.90
28632;DHT22;15818;45.534;5.292;2022-08-19T03:29:58;17.20;99.90
28632;DHT22;15818;45.534;5.292;2022-08-19T03:32:24;17.20;99.90
28632;DHT22;15818;45.534;5.292;2022-08-19T03:34:50;17.20;99.90
28632;DHT22;15818;45.534;5.292;2022-08-19T03:37:17;17.20;99.90
28632;DHT22;15818;45.534;5.292;2022-08-19T03:39:43;17.20;99.90
28632;DHT22;15818;45.534;5.292;2022-08-19T03:42:09;17.20;99.90
28632;DHT22;15818;45.534;5.292;2022-08-19T03:44:35;17.10;99.90
28632;DHT22;15818;45.534;5.292;2022-08-19T03:47:03;17.10;99.90
28632;DHT22;15818;45.534;5.292;2022-08-19T03:49:31;17.10;99.90
28632;DHT22;15818;45.534;5.292;2022-08-19T03:51:59;17.10;99.90
28632;DHT22;15818;45.534;5.292;2022-08-19T03:54:28;17.10;99.90
28632;DHT22;15818;45.534;5.292;2022-08-19T03:56:55;17.10;99.90
28632;DHT22;15818;45.534;5.292;2022-08-19T03:59:29;17.10;99.90
28632;DHT22;15818;45.534;5.292;2022-08-19T04:01:58;17.10;99.90
28632;DHT22;15818;45.534;5.292;2022-08-19T04:04:24;17.00;99.90
28632;DHT22;15818;45.534;5.292;2022-08-19T04:06:50;17.00;99.90
28632;DHT22;15818;45.534;5.292;2022-08-19T04:09:17;17.00;99.90
28632;DHT22;15818;45.534;5.292;2022-08-19T04:11:48;17.10;99.90
28632;DHT22;15818;45.534;5.292;2022-08-19T04:14:18;17.10;99.90
28632;DHT22;15818;45.534;5.292;2022-08-19T04:16:45;17.10;99.90
28632;DHT22;15818;45.534;5.292;2022-08-19T04:19:12;17.10;99.90
28632;DHT22;15818;45.534;5.292;2022-08-19T04:21:39;17.10;99.90
28632;DHT22;15818;45.534;5.292;2022-08-19T04:24:05;17.10;99.90
28632;DHT22;15818;45.534;5.292;2022-08-19T04:26:34;17.10;99.90
28632;DHT22;15818;45.534;5.292;2022-08-19T04:29:03;17.10;99.90
28632;DHT22;15818;45.534;5.292;2022-08-19T04:31:31;17.00;99.90
28632;DHT22;15818;45.534;5.292;2022-08-19T04:34:03;17.10;99.90
28632;DHT22;15818;45.534;5.292;2022-08-19T04:36:32;17.10;99.90
28632;DHT22;15818;45.534;5.292;2022-08-19T04:39:00;17.10;99.90
28632;DHT22;15818;45.534;5.292;2022-08-19T04:41:26;17.10;99.90
28632;DHT22;15818;45.534;5.292;2022-08-19T04:44:11;17.10;99.90
28632;DHT22;15818;45.534;5.292;2022-08-19T04:46:37;17.10;99.90
28632;DHT22;15818;45.534;5.292;2022-08-19T04:49:05;17.00;99.90
28632;DHT22;15818;45.534;5.292;2022-08-19T04:51:32;17.00;99.90
28632;DHT22;15818;45.534;5.292;2022-08-19T04:53:59;17.10;99.90
28632;DHT22;15818;45.534;5.292;2022-08-19T04:56:26;17.00;99.90
28632;DHT22;15818;45.534;5.292;2022-08-19T04:58:53;17.10;99.90
28632;DHT22;15818;45.534;5.292;2022-08-19T05:01:22;17.00;99.90
28632;DHT22;15818;45.534;5.292;2022-08-19T05:03:48;17.00;99.90
28632;DHT22;15818;45.534;5.292;2022-08-19T05:06:16;17.10;99.90
28632;DHT22;15818;45.534;5.292;2022-08-19T05:08:43;17.10;99.90
28632;DHT22;15818;45.534;5.292;2022-08-19T05:11:16;17.10;99.90
28632;DHT22;15818;45.534;5.292;2022-08-19T05:13:46;17.00;99.90
28632;DHT22;15818;45.534;5.292;2022-08-19T05:16:15;17.00;99.90
28632;DHT22;15818;45.534;5.292;2022-08-19T05:18:42;17.00;99.90
28632;DHT22;15818;45.534;5.292;2022-08-19T05:21:28;17.10;99.90
28632;DHT22;15818;45.534;5.292;2022-08-19T05:24:13;17.10;99.90
28632;DHT22;15818;45.534;5.292;2022-08-19T05:26:42;17.00;99.90
28632;DHT22;15818;45.534;5.292;2022-08-19T05:29:08;17.10;99.90
28632;DHT22;15818;45.534;5.292;2022-08-19T05:31:36;17.10;99.90
28632;DHT22;15818;45.534;5.292;2022-08-19T05:34:04;17.20;99.90
28632;DHT22;15818;45.534;5.292;2022-08-19T05:36:34;17.10;99.90
28632;DHT22;15818;45.534;5.292;2022-08-19T05:39:01;17.10;99.90
28632;DHT22;15818;45.534;5.292;2022-08-19T05:41:27;17.10;99.90
28632;DHT22;15818;45.534;5.292;2022-08-19T05:44:01;17.10;99.90
28632;DHT22;15818;45.534;5.292;2022-08-19T05:46:28;17.10;99.90
28632;DHT22;15818;45.534;5.292;2022-08-19T05:48:55;17.10;99.90
28632;DHT22;15818;45.534;5.292;2022-08-19T05:51:22;17.10;99.90
28632;DHT22;15818;45.534;5.292;2022-08-19T05:53:49;17.10;99.90
28632;DHT22;15818;45.534;5.292;2022-08-19T05:56:16;17.10;99.90
28632;DHT22;15818;45.534;5.292;2022-08-19T05:58:43;17.20;99.90
28632;DHT22;15818;45.534;5.292;2022-08-19T06:01:12;17.20;99.90
28632;DHT22;15818;45.534;5.292;2022-08-19T06:03:38;17.20;99.90
28632;DHT22;15818;45.534;5.292;2022-08-19T06:06:06;17.20;99.90
28632;DHT22;15818;45.534;5.292;2022-08-19T06:08:33;17.20;99.90
28632;DHT22;15818;45.534;5.292;2022-08-19T06:11:22;17.20;99.90
28632;DHT22;15818;45.534;5.292;2022-08-19T06:13:50;17.20;99.90
28632;DHT22;15818;45.534;5.292;2022-08-19T06:16:19;17.20;99.90
28632;DHT22;15818;45.534;5.292;2022-08-19T06:18:53;17.30;99.90
28632;DHT22;15818;45.534;5.292;2022-08-19T06:21:24;17.30;99.90
28632;DHT22;15818;45.534;5.292;2022-08-19T06:23:51;17.30;99.90
28632;DHT22;15818;45.534;5.292;2022-08-19T06:26:18;17.40;99.90
28632;DHT22;15818;45.534;5.292;2022-08-19T06:28:45;17.40;99.90
28632;DHT22;15818;45.534;5.292;2022-08-19T06:31:20;17.30;99.90
28632;DHT22;15818;45.534;5.292;2022-08-19T06:33:47;17.40;99.90
28632;DHT22;15818;45.534;5.292;2022-08-19T06:36:35;17.40;99.90
28632;DHT22;15818;45.534;5.292;2022-08-19T06:39:05;17.40;99.90
28632;DHT22;15818;45.534;5.292;2022-08-19T06:41:35;17.50;99.90
28632;DHT22;15818;45.534;5.292;2022-08-19T06:44:01;17.50;99.90
28632;DHT22;15818;45.534;5.292;2022-08-19T06:46:27;17.50;99.90
28632;DHT22;15818;45.534;5.292;2022-08-19T06:48:53;17.50;99.90
28632;DHT22;15818;45.534;5.292;2022-08-19T06:51:20;17.50;99.90
28632;DHT22;15818;45.534;5.292;2022-08-19T06:53:48;17.50;99.90
28632;DHT22;15818;45.534;5.292;2022-08-19T06:56:20;17.50;99.90
28632;DHT22;15818;45.534;5.292;2022-08-19T06:58:47;17.50;99.90
28632;DHT22;15818;45.534;5.292;2022-08-19T07:01:13;17.50;99.90
28632;DHT22;15818;45.534;5.292;2022-08-19T07:03:39;17.60;99.90
28632;DHT22;15818;45.534;5.292;2022-08-19T07:06:11;17.80;99.90
28632;DHT22;15818;45.534;5.292;2022-08-19T07:08:38;17.80;99.90
28632;DHT22;15818;45.534;5.292;2022-08-19T07:11:09;17.80;99.90
28632;DHT22;15818;45.534;5.292;2022-08-19T07:13:36;17.80;99.90
28632;DHT22;15818;45.534;5.292;2022-08-19T07:16:10;17.90;99.90
28632;DHT22;15818;45.534;5.292;2022-08-19T07:18:37;17.90;99.90
28632;DHT22;15818;45.534;5.292;2022-08-19T07:21:12;17.80;99.90
28632;DHT22;15818;45.534;5.292;2022-08-19T07:23:38;17.80;99.90
28632;DHT22;15818;45.534;5.292;2022-08-19T07:26:13;17.90;99.90
28632;DHT22;15818;45.534;5.292;2022-08-19T07:28:39;18.00;99.90
28632;DHT22;15818;45.534;5.292;2022-08-19T07:31:06;17.80;99.90
28632;DHT22;15818;45.534;5.292;2022-08-19T07:33:32;17.80;99.90
28632;DHT22;15818;45.534;5.292;2022-08-19T07:35:58;17.70;99.90
28632;DHT22;15818;45.534;5.292;2022-08-19T07:38:24;17.80;99.90
28632;DHT22;15818;45.534;5.292;2022-08-19T07:40:49;17.80;99.90
28632;DHT22;15818;45.534;5.292;2022-08-19T07:43:16;17.80;99.90
28632;DHT22;15818;45.534;5.292;2022-08-19T07:45:45;17.80;99.90
28632;DHT22;15818;45.534;5.292;2022-08-19T07:48:12;17.80;99.90
28632;DHT22;15818;45.534;5.292;2022-08-19T07:50:40;17.90;99.90
28632;DHT22;15818;45.534;5.292;2022-08-19T07:53:05;17.80;99.90
28632;DHT22;15818;45.534;5.292;2022-08-19T07:55:31;17.90;99.90
28632;DHT22;15818;45.534;5.292;2022-08-19T07:57:57;17.90;99.90
28632;DHT22;15818;45.534;5.292;2022-08-19T08:00:23;17.90;99.90
28632;DHT22;15818;45.534;5.292;2022-08-19T08:02:49;17.90;99.90
28632;DHT22;15818;45.534;5.292;2022-08-19T08:05:14;18.00;99.90
28632;DHT22;15818;45.534;5.292;2022-08-19T08:07:59;18.20;99.90
28632;DHT22;15818;45.534;5.292;2022-08-19T08:10:43;18.30;99.90
28632;DHT22;15818;45.534;5.292;2022-08-19T08:13:08;18.30;99.90
28632;DHT22;15818;45.534;5.292;2022-08-19T08:15:34;18.20;99.90
28632;DHT22;15818;45.534;5.292;2022-08-19T08:18:00;18.00;99.90
28632;DHT22;15818;45.534;5.292;2022-08-19T08:20:26;17.90;99.90
28632;DHT22;15818;45.534;5.292;2022-08-19T08:22:51;17.80;99.90
28632;DHT22;15818;45.534;5.292;2022-08-19T08:25:36;17.80;99.90
28632;DHT22;15818;45.534;5.292;2022-08-19T08:28:03;17.80;99.90
28632;DHT22;15818;45.534;5.292;2022-08-19T08:30:30;17.80;99.90
28632;DHT22;15818;45.534;5.292;2022-08-19T08:32:58;17.90;99.90
28632;DHT22;15818;45.534;5.292;2022-08-19T08:35:24;17.90;99.90
28632;DHT22;15818;45.534;5.292;2022-08-19T08:37:52;17.90;99.90
28632;DHT22;15818;45.534;5.292;2022-08-19T08:40:25;17.90;99.90
28632;DHT22;15818;45.534;5.292;2022-08-19T08:43:03;17.80;99.90
28632;DHT22;15818;45.534;5.292;2022-08-19T08:45:33;17.90;99.90
28632;DHT22;15818;45.534;5.292;2022-08-19T08:48:03;17.90;99.90
28632;DHT22;15818;45.534;5.292;2022-08-19T08:50:39;18.00;99.90
28632;DHT22;15818;45.534;5.292;2022-08-19T08:53:07;18.10;99.90
28632;DHT22;15818;45.534;5.292;2022-08-19T08:55:34;18.20;99.90
28632;DHT22;15818;45.534;5.292;2022-08-19T08:58:05;18.30;99.90
28632;DHT22;15818;45.534;5.292;2022-08-19T09:00:38;18.20;99.90
28632;DHT22;15818;45.534;5.292;2022-08-19T09:03:26;18.30;99.90
28632;DHT22;15818;45.534;5.292;2022-08-19T09:06:04;18.50;99.90
28632;DHT22;15818;45.534;5.292;2022-08-19T09:08:45;18.70;99.90
28632;DHT22;15818;45.534;5.292;2022-08-19T09:17:08;18.60;99.90
28632;DHT22;15818;45.534;5.292;2022-08-19T09:19:56;18.80;99.90
28632;DHT22;15818;45.534;5.292;2022-08-19T09:22:23;18.90;99.90
28632;DHT22;15818;45.534;5.292;2022-08-19T09:24:50;18.80;99.90
28632;DHT22;15818;45.534;5.292;2022-08-19T09:27:20;19.00;99.90
28632;DHT22;15818;45.534;5.292;2022-08-19T09:29:49;19.00;99.90
28632;DHT22;15818;45.534;5.292;2022-08-19T09:32:15;19.00;99.90
28632;DHT22;15818;45.534;5.292;2022-08-19T09:34:42;19.10;99.90
28632;DHT22;15818;45.534;5.292;2022-08-19T09:37:09;19.10;99.90
28632;DHT22;15818;45.534;5.292;2022-08-19T09:39:35;19.10;99.90
28632;DHT22;15818;45.534;5.292;2022-08-19T09:42:00;19.50;99.90
28632;DHT22;15818;45.534;5.292;2022-08-19T09:44:29;19.60;99.90
28632;DHT22;15818;45.534;5.292;2022-08-19T09:46:54;19.30;99.90
28632;DHT22;15818;45.534;5.292;2022-08-19T09:49:21;19.40;99.90
28632;DHT22;15818;45.534;5.292;2022-08-19T09:51:51;20.10;99.90
28632;DHT22;15818;45.534;5.292;2022-08-19T09:54:21;20.50;99.90
28632;DHT22;15818;45.534;5.292;2022-08-19T09:56:47;20.60;99.90
28632;DHT22;15818;45.534;5.292;2022-08-19T09:59:13;20.60;99.90
28632;DHT22;15818;45.534;5.292;2022-08-19T10:01:39;20.40;99.90
28632;DHT22;15818;45.534;5.292;2022-08-19T10:04:04;20.60;99.90
28632;DHT22;15818;45.534;5.292;2022-08-19T10:06:39;20.60;99.90
28632;DHT22;15818;45.534;5.292;2022-08-19T10:09:08;20.60;99.90
28632;DHT22;15818;45.534;5.292;2022-08-19T10:11:36;20.40;99.90
28632;DHT22;15818;45.534;5.292;2022-08-19T10:14:03;20.30;99.90
28632;DHT22;15818;45.534;5.292;2022-08-19T10:16:31;21.30;99.90
28632;DHT22;15818;45.534;5.292;2022-08-19T10:18:57;22.00;99.90
28632;DHT22;15818;45.534;5.292;2022-08-19T10:21:26;21.90;99.90
28632;DHT22;15818;45.534;5.292;2022-08-19T10:23:54;22.70;99.90
28632;DHT22;15818;45.534;5.292;2022-08-19T10:26:27;21.80;99.90
28632;DHT22;15818;45.534;5.292;2022-08-19T10:28:54;20.80;99.90
28632;DHT22;15818;45.534;5.292;2022-08-19T10:31:24;20.20;99.90
28632;DHT22;15818;45.534;5.292;2022-08-19T10:33:51;19.80;99.90
28632;DHT22;15818;45.534;5.292;2022-08-19T10:36:30;19.60;99.90
28632;DHT22;15818;45.534;5.292;2022-08-19T10:38:58;19.30;99.90
28632;DHT22;15818;45.534;5.292;2022-08-19T10:41:29;19.00;99.90
28632;DHT22;15818;45.534;5.292;2022-08-19T10:43:58;18.80;99.90
28632;DHT22;15818;45.534;5.292;2022-08-19T10:46:26;18.60;99.90
28632;DHT22;15818;45.534;5.292;2022-08-19T10:48:53;18.60;99.90
28632;DHT22;15818;45.534;5.292;2022-08-19T10:51:19;18.90;99.90
28632;DHT22;15818;45.534;5.292;2022-08-19T10:54:04;19.20;99.90
28632;DHT22;15818;45.534;5.292;2022-08-19T10:56:30;19.30;99.90
28632;DHT22;15818;45.534;5.292;2022-08-19T10:59:15;19.20;99.90
28632;DHT22;15818;45.534;5.292;2022-08-19T11:01:44;19.20;99.90
28632;DHT22;15818;45.534;5.292;2022-08-19T11:04:10;19.10;99.90
28632;DHT22;15818;45.534;5.292;2022-08-19T11:06:46;19.00;99.90
28632;DHT22;15818;45.534;5.292;2022-08-19T11:09:19;19.20;99.90
28632;DHT22;15818;45.534;5.292;2022-08-19T11:11:45;19.00;99.90
28632;DHT22;15818;45.534;5.292;2022-08-19T11:14:18;18.80;99.90
28632;DHT22;15818;45.534;5.292;2022-08-19T11:16:46;18.70;99.90
28632;DHT22;15818;45.534;5.292;2022-08-19T11:19:12;18.70;99.90
28632;DHT22;15818;45.534;5.292;2022-08-19T11:21:43;18.60;99.90
28632;DHT22;15818;45.534;5.292;2022-08-19T11:24:12;18.60;99.90
28632;DHT22;15818;45.534;5.292;2022-08-19T11:26:40;18.70;99.90
28632;DHT22;15818;45.534;5.292;2022-08-19T11:29:07;18.70;99.90
28632;DHT22;15818;45.534;5.292;2022-08-19T11:31:38;18.70;99.90
28632;DHT22;15818;45.534;5.292;2022-08-19T11:34:07;18.80;99.90
28632;DHT22;15818;45.534;5.292;2022-08-19T11:36:34;19.00;99.90
28632;DHT22;15818;45.534;5.292;2022-08-19T11:39:04;19.40;99.90
28632;DHT22;15818;45.534;5.292;2022-08-19T11:41:30;19.50;99.90
28632;DHT22;15818;45.534;5.292;2022-08-19T11:43:56;19.70;99.90
28632;DHT22;15818;45.534;5.292;2022-08-19T11:46:25;19.70;99.90
28632;DHT22;15818;45.534;5.292;2022-08-19T11:48:51;19.80;99.90
28632;DHT22;15818;45.534;5.292;2022-08-19T11:51:20;19.90;99.90
28632;DHT22;15818;45.534;5.292;2022-08-19T11:53:48;20.00;99.90
28632;DHT22;15818;45.534;5.292;2022-08-19T11:56:14;19.90;99.90
28632;DHT22;15818;45.534;5.292;2022-08-19T11:58:40;19.90;99.90
28632;DHT22;15818;45.534;5.292;2022-08-19T12:01:15;19.60;99.90
28632;DHT22;15818;45.534;5.292;2022-08-19T12:03:41;19.40;99.90
28632;DHT22;15818;45.534;5.292;2022-08-19T12:06:13;19.30;99.90
28632;DHT22;15818;45.534;5.292;2022-08-19T12:08:43;19.30;99.90
28632;DHT22;15818;45.534;5.292;2022-08-19T12:11:10;19.30;99.90
28632;DHT22;15818;45.534;5.292;2022-08-19T12:13:37;19.20;99.90
28632;DHT22;15818;45.534;5.292;2022-08-19T12:16:12;19.20;99.90
28632;DHT22;15818;45.534;5.292;2022-08-19T12:18:42;19.20;99.90
28632;DHT22;15818;45.534;5.292;2022-08-19T12:21:15;19.20;99.90
28632;DHT22;15818;45.534;5.292;2022-08-19T12:23:42;19.20;99.90
28632;DHT22;15818;45.534;5.292;2022-08-19T12:26:09;19.00;99.90
28632;DHT22;15818;45.534;5.292;2022-08-19T12:28:35;19.00;99.90
28632;DHT22;15818;45.534;5.292;2022-08-19T12:31:01;18.90;99.90
28632;DHT22;15818;45.534;5.292;2022-08-19T12:33:27;18.90;99.90
28632;DHT22;15818;45.534;5.292;2022-08-19T12:35:54;19.00;99.90
28632;DHT22;15818;45.534;5.292;2022-08-19T12:38:20;19.10;99.90
28632;DHT22;15818;45.534;5.292;2022-08-19T12:40:49;19.20;99.90
28632;DHT22;15818;45.534;5.292;2022-08-19T12:43:17;19.20;99.90
28632;DHT22;15818;45.534;5.292;2022-08-19T12:45:45;19.30;99.90
28632;DHT22;15818;45.534;5.292;2022-08-19T12:48:11;19.40;99.90
28632;DHT22;15818;45.534;5.292;2022-08-19T12:50:42;19.40;99.90
28632;DHT22;15818;45.534;5.292;2022-08-19T12:53:08;19.60;99.90
28632;DHT22;15818;45.534;5.292;2022-08-19T12:55:34;19.80;99.90
28632;DHT22;15818;45.534;5.292;2022-08-19T12:58:00;20.00;99.90
28632;DHT22;15818;45.534;5.292;2022-08-19T13:00:29;20.20;99.90
28632;DHT22;15818;45.534;5.292;2022-08-19T13:02:55;20.50;99.90
28632;DHT22;15818;45.534;5.292;2022-08-19T13:05:24;20.80;99.90
28632;DHT22;15818;45.534;5.292;2022-08-19T13:07:52;21.20;99.90
28632;DHT22;15818;45.534;5.292;2022-08-19T13:10:21;21.60;99.90
28632;DHT22;15818;45.534;5.292;2022-08-19T13:12:49;21.70;99.90
28632;DHT22;15818;45.534;5.292;2022-08-19T13:15:16;21.70;99.90
28632;DHT22;15818;45.534;5.292;2022-08-19T13:17:46;21.80;99.90
28632;DHT22;15818;45.534;5.292;2022-08-19T13:20:12;21.70;99.90
28632;DHT22;15818;45.534;5.292;2022-08-19T13:22:38;21.40;99.90
28632;DHT22;15818;45.534;5.292;2022-08-19T13:25:06;21.00;99.90
28632;DHT22;15818;45.534;5.292;2022-08-19T13:27:32;20.70;99.90
28632;DHT22;15818;45.534;5.292;2022-08-19T13:29:59;20.50;99.90
28632;DHT22;15818;45.534;5.292;2022-08-19T13:32:43;20.30;99.90
28632;DHT22;15818;45.534;5.292;2022-08-19T13:35:27;20.10;99.90
28632;DHT22;15818;45.534;5.292;2022-08-19T13:37:53;20.00;99.90
28632;DHT22;15818;45.534;5.292;2022-08-19T13:40:21;19.90;99.90
28632;DHT22;15818;45.534;5.292;2022-08-19T13:42:51;19.90;99.90
28632;DHT22;15818;45.534;5.292;2022-08-19T13:45:20;19.80;99.90
28632;DHT22;15818;45.534;5.292;2022-08-19T13:47:47;19.80;99.90
28632;DHT22;15818;45.534;5.292;2022-08-19T13:50:16;19.70;99.90
28632;DHT22;15818;45.534;5.292;2022-08-19T13:52:43;19.70;99.90
28632;DHT22;15818;45.534;5.292;2022-08-19T13:55:10;19.60;99.90
28632;DHT22;15818;45.534;5.292;2022-08-19T13:57:36;19.60;99.90
28632;DHT22;15818;45.534;5.292;2022-08-19T14:00:09;19.70;99.90
28632;DHT22;15818;45.534;5.292;2022-08-19T14:02:37;19.70;99.90
28632;DHT22;15818;45.534;5.292;2022-08-19T14:05:05;19.80;99.90
28632;DHT22;15818;45.534;5.292;2022-08-19T14:07:31;20.00;99.90
28632;DHT22;15818;45.534;5.292;2022-08-19T14:09:57;20.10;99.90
28632;DHT22;15818;45.534;5.292;2022-08-19T14:12:23;20.40;99.90
28632;DHT22;15818;45.534;5.292;2022-08-19T14:14:49;20.50;99.90
28632;DHT22;15818;45.534;5.292;2022-08-19T14:17:15;20.70;99.90
28632;DHT22;15818;45.534;5.292;2022-08-19T14:19:41;21.30;99.90
28632;DHT22;15818;45.534;5.292;2022-08-19T14:22:07;22.20;99.90
28632;DHT22;15818;45.534;5.292;2022-08-19T14:24:33;22.80;99.90
28632;DHT22;15818;45.534;5.292;2022-08-19T14:26:59;23.10;99.90
28632;DHT22;15818;45.534;5.292;2022-08-19T14:29:25;23.10;99.90
28632;DHT22;15818;45.534;5.292;2022-08-19T14:31:54;23.00;99.90
28632;DHT22;15818;45.534;5.292;2022-08-19T14:34:21;23.10;99.90
28632;DHT22;15818;45.534;5.292;2022-08-19T14:36:47;23.00;99.90
28632;DHT22;15818;45.534;5.292;2022-08-19T14:39:13;23.10;99.90
28632;DHT22;15818;45.534;5.292;2022-08-19T14:41:40;22.90;99.90
28632;DHT22;15818;45.534;5.292;2022-08-19T14:44:07;23.00;99.90
28632;DHT22;15818;45.534;5.292;2022-08-19T14:46:35;23.00;99.90
28632;DHT22;15818;45.534;5.292;2022-08-19T14:49:01;22.90;99.90
28632;DHT22;15818;45.534;5.292;2022-08-19T14:51:27;23.10;99.90
28632;DHT22;15818;45.534;5.292;2022-08-19T14:53:53;23.10;99.90
28632;DHT22;15818;45.534;5.292;2022-08-19T14:56:23;23.30;99.90
28632;DHT22;15818;45.534;5.292;2022-08-19T14:58:49;23.20;99.90
28632;DHT22;15818;45.534;5.292;2022-08-19T15:01:19;23.30;99.90
28632;DHT22;15818;45.534;5.292;2022-08-19T15:03:48;23.30;99.90
28632;DHT22;15818;45.534;5.292;2022-08-19T15:06:15;23.30;99.90
28632;DHT22;15818;45.534;5.292;2022-08-19T15:08:42;23.40;99.90
28632;DHT22;15818;45.534;5.292;2022-08-19T15:11:16;23.40;99.90
28632;DHT22;15818;45.534;5.292;2022-08-19T15:13:43;23.40;99.90
28632;DHT22;15818;45.534;5.292;2022-08-19T15:16:10;23.20;99.90
28632;DHT22;15818;45.534;5.292;2022-08-19T15:18:36;23.20;99.90
28632;DHT22;15818;45.534;5.292;2022-08-19T15:21:03;23.00;99.90
28632;DHT22;15818;45.534;5.292;2022-08-19T15:23:29;22.90;99.90
28632;DHT22;15818;45.534;5.292;2022-08-19T15:25:55;22.80;99.90
28632;DHT22;15818;45.534;5.292;2022-08-19T15:28:22;22.80;99.90
28632;DHT22;15818;45.534;5.292;2022-08-19T15:30:48;22.80;99.90
28632;DHT22;15818;45.534;5.292;2022-08-19T15:33:15;22.60;99.90
28632;DHT22;15818;45.534;5.292;2022-08-19T15:35:43;22.40;99.90
28632;DHT22;15818;45.534;5.292;2022-08-19T15:38:10;22.40;99.90
28632;DHT22;15818;45.534;5.292;2022-08-19T15:40:39;22.70;99.90
28632;DHT22;15818;45.534;5.292;2022-08-19T15:43:06;22.70;99.90
28632;DHT22;15818;45.534;5.292;2022-08-19T15:45:32;22.70;99.90